createdAt,value
2023-03-25T00:06:56.302Z,98648.36
2023-03-25T00:17:01.457Z,98638.11
2023-03-25T00:27:05.102Z,98636.77
2023-03-25T00:37:10.939Z,98625.16
2023-03-25T00:47:20.685Z,98622.33
2023-03-25T00:57:24.456Z,98625.91
2023-03-25T01:07:30.594Z,98622.23
2023-03-25T01:17:35.198Z,98611.46
2023-03-25T01:27:41.536Z,98599.11
2023-03-25T01:37:47.665Z,98596.91
2023-03-25T01:48:03.103Z,98600.77
2023-03-25T01:58:14.265Z,98598.98
2023-03-25T02:08:21.055Z,98595.23
2023-03-25T02:18:38.000Z,98597.87
2023-03-25T02:28:56.349Z,98592.90
2023-03-25T02:39:08.484Z,98587.73
2023-03-25T02:49:21.809Z,98573.46
2023-03-25T02:59:33.614Z,98571.86
2023-03-25T03:10:21.639Z,98583.98
2023-03-25T03:20:53.119Z,98592.17
2023-03-25T03:31:09.629Z,98605.02
2023-03-25T03:41:20.825Z,98609.16
2023-03-25T03:51:39.793Z,98611.33
2023-03-25T04:01:56.684Z,98608.94
2023-03-25T04:12:06.796Z,98609.09
2023-03-25T04:22:10.492Z,98602.11
2023-03-25T04:32:17.969Z,98603.40
2023-03-25T04:42:27.666Z,98592.83
2023-03-25T04:52:31.377Z,98589.66
2023-03-25T05:02:34.948Z,98585.50
2023-03-25T05:12:40.404Z,98585.24
2023-03-25T05:22:46.141Z,98587.47
2023-03-25T05:32:56.593Z,98599.73
2023-03-25T05:43:01.116Z,98601.45
2023-03-25T05:53:06.277Z,98604.09
2023-03-25T06:03:11.445Z,98607.36
2023-03-25T06:13:16.537Z,98610.84
2023-03-25T06:23:24.350Z,98624.38
2023-03-25T06:33:42.335Z,98618.41
2023-03-25T06:43:49.866Z,98625.88
2023-03-25T06:54:17.678Z,98634.15
2023-03-25T07:04:21.415Z,98638.13
2023-03-25T07:14:25.791Z,98643.14
2023-03-25T07:24:31.320Z,98642.10
2023-03-25T07:34:35.777Z,98645.34
2023-03-25T07:44:39.301Z,98635.70
2023-03-25T07:54:44.903Z,98630.30
2023-03-25T08:04:49.201Z,98640.71
2023-03-25T08:14:54.526Z,98640.33
2023-03-25T08:24:59.640Z,98637.77
2023-03-25T08:35:08.111Z,98631.15
2023-03-25T08:45:15.989Z,98620.48
2023-03-25T08:55:19.671Z,98612.89
2023-03-25T09:05:28.109Z,98616.52
2023-03-25T09:15:34.333Z,98611.05
2023-03-25T09:25:38.449Z,98608.41
2023-03-25T09:35:42.199Z,98618.18
2023-03-25T09:45:48.655Z,98606.79
2023-03-25T09:55:53.504Z,98603.55
2023-03-25T10:06:21.027Z,98586.02
2023-03-25T10:16:51.101Z,98583.09
2023-03-25T10:27:20.805Z,98572.38
2023-03-25T10:37:39.654Z,98567.55
2023-03-25T10:47:47.757Z,98559.56
2023-03-25T10:57:52.885Z,98546.05
2023-03-25T11:08:18.129Z,98541.31
2023-03-25T11:18:34.352Z,98534.67
2023-03-25T11:29:02.741Z,98532.27
2023-03-25T11:39:23.562Z,98527.52
2023-03-25T11:49:29.842Z,98526.20
2023-03-25T11:59:39.859Z,98513.62
2023-03-25T12:09:57.928Z,98502.19
2023-03-25T12:20:13.496Z,98499.66
2023-03-25T12:30:36.300Z,98490.60
2023-03-25T12:41:11.237Z,98481.45
2023-03-25T12:51:43.763Z,98462.17
2023-03-25T13:02:16.637Z,98454.60
2023-03-25T13:12:23.385Z,98455.67
2023-03-25T13:22:35.015Z,98443.85
2023-03-25T13:32:50.545Z,98439.18
2023-03-25T13:43:20.577Z,98431.02
2023-03-25T13:53:56.217Z,98429.20
2023-03-25T14:04:20.998Z,98423.30
2023-03-25T14:14:25.784Z,98428.52
2023-03-25T14:24:33.181Z,98430.67
2023-03-25T14:34:39.370Z,98438.20
2023-03-25T14:45:06.094Z,98435.88
2023-03-25T14:55:19.328Z,98431.92
2023-03-25T15:05:29.655Z,98434.31
2023-03-25T15:15:52.538Z,98435.70
2023-03-25T15:25:58.062Z,98419.98
2023-03-25T15:36:35.771Z,98419.20
2023-03-25T15:46:58.239Z,98414.23
2023-03-25T15:57:17.256Z,98417.39
2023-03-25T16:07:30.547Z,98420.80
2023-03-25T16:18:22.615Z,98432.96
2023-03-25T16:28:39.784Z,98436.50
2023-03-25T16:39:53.465Z,98445.22
2023-03-25T16:50:00.753Z,98450.41
2023-03-25T17:00:17.736Z,98454.55
2023-03-25T17:10:27.577Z,98452.79
2023-03-25T17:20:37.913Z,98451.88
2023-03-25T17:30:44.395Z,98476.23
2023-03-25T17:40:58.481Z,98479.77
2023-03-25T17:51:04.560Z,98478.70
2023-03-25T18:01:10.175Z,98469.85
2023-03-25T18:11:13.999Z,98475.55
2023-03-25T18:21:21.632Z,98480.67
2023-03-25T18:31:26.054Z,98488.38
2023-03-25T18:41:31.632Z,98494.98
2023-03-25T18:51:37.826Z,98492.53
2023-03-25T19:01:42.695Z,98490.13
2023-03-25T19:11:47.577Z,98491.16
2023-03-25T19:21:54.549Z,98495.89
2023-03-25T19:32:00.114Z,98484.79
2023-03-25T19:42:04.941Z,98477.73
2023-03-25T19:52:08.686Z,98472.45
2023-03-25T20:02:12.401Z,98474.61
2023-03-25T20:12:16.128Z,98463.05
2023-03-25T20:22:24.949Z,98466.29
2023-03-25T20:32:39.940Z,98476.36
2023-03-25T20:42:47.240Z,98474.34
2023-03-25T20:52:51.110Z,98477.42
2023-03-25T21:02:55.789Z,98471.01
2023-03-25T21:12:59.571Z,98470.92
2023-03-25T21:23:05.615Z,98476.50
2023-03-25T21:33:10.668Z,98479.02
2023-03-25T21:43:16.327Z,98478.71
2023-03-25T21:53:19.893Z,98474.45
2023-03-25T22:03:30.274Z,98462.80
2023-03-25T22:13:36.287Z,98461.39
2023-03-25T22:23:42.073Z,98460.59
2023-03-25T22:33:46.876Z,98463.60
2023-03-25T22:43:50.587Z,98464.52
2023-03-25T22:53:54.331Z,98465.41
2023-03-25T23:04:02.806Z,98457.78
2023-03-25T23:14:10.766Z,98449.23
2023-03-25T23:24:14.486Z,98447.05
2023-03-25T23:34:18.318Z,98441.18
2023-03-25T23:44:22.522Z,98446.31
2023-03-25T23:54:27.348Z,98440.16
